Time;durP1;ratioP1;P1;durP2;ratioP2;P2;SDS_P1;SDS_P2;PMS_P1;PMS_P2;Temp;Humidity;BMP_temperature;BMP_pressure;BME280_temperature;BME280_humidity;BME280_pressure;Samples;Min_cycle;Max_cycle;Signal;HPM_P1;HPM_P2
2023/01/26 00:01:22;;;;;;;0.00;0.00;;;1.10;99.90;;;;;;4920527;29;20031;-73
2023/01/26 00:03:56;;;;;;;0.00;0.00;;;1.10;99.90;;;;;;4923076;29;20036;-74
2023/01/26 00:06:22;;;;;;;0.00;0.00;;;1.10;99.90;;;;;;4924771;29;20034;-74
2023/01/26 00:08:58;;;;;;;0.00;0.00;;;1.10;99.90;;;;;;4925022;29;20027;-74
2023/01/26 00:11:27;;;;;;;0.00;0.00;;;1.10;99.90;;;;;;4924410;29;20020;-73
2023/01/26 00:13:59;;;;;;;0.00;0.00;;;1.20;99.90;;;;;;4924950;29;20015;-73
2023/01/26 00:16:26;;;;;;;0.00;0.00;;;1.10;99.90;;;;;;4921375;29;20024;-73
2023/01/26 00:18:55;;;;;;;0.00;0.00;;;1.10;99.90;;;;;;4929917;29;20115;-73
2023/01/26 00:21:23;;;;;;;0.00;0.00;;;1.10;99.90;;;;;;4919965;29;20062;-73
2023/01/26 00:23:50;;;;;;;0.00;0.00;;;1.00;99.90;;;;;;4919373;29;20040;-73
2023/01/26 00:26:25;;;;;;;0.00;0.00;;;1.00;99.90;;;;;;4919718;29;20069;-73
2023/01/26 00:28:54;;;;;;;0.00;0.00;;;1.10;99.90;;;;;;4933273;29;20459;-74
2023/01/26 00:31:23;;;;;;;0.00;0.00;;;1.10;99.90;;;;;;4919618;29;20020;-74
2023/01/26 00:33:51;;;;;;;0.00;0.00;;;1.10;99.90;;;;;;4915304;29;20028;-73
2023/01/26 00:36:18;;;;;;;0.00;0.00;;;1.00;99.90;;;;;;4926108;29;20118;-74
2023/01/26 00:38:46;;;;;;;0.00;0.00;;;0.90;99.90;;;;;;4923238;29;20492;-73
2023/01/26 00:43:57;;;;;;;0.00;0.00;;;0.90;99.90;;;;;;4924209;29;20115;-74
2023/01/26 00:46:24;;;;;;;;;;;1.00;99.90;;;;;;4940637;28;20110;-73
2023/01/26 00:48:51;;;;;;;0.00;0.00;;;1.10;99.90;;;;;;4924903;29;20284;-74
2023/01/26 00:51:17;;;;;;;0.00;0.00;;;1.10;99.90;;;;;;4923262;29;20031;-73
2023/01/26 00:53:45;;;;;;;0.00;0.00;;;1.10;99.90;;;;;;4918127;29;20032;-73
2023/01/26 00:56:13;;;;;;;0.00;0.00;;;1.10;99.90;;;;;;4924179;29;20023;-73
2023/01/26 00:58:39;;;;;;;0.00;0.00;;;1.00;99.90;;;;;;4928205;29;20024;-74
2023/01/26 01:01:10;;;;;;;0.00;0.00;;;1.00;99.90;;;;;;4918302;29;20023;-75
2023/01/26 01:03:36;;;;;;;0.00;0.00;;;1.00;99.90;;;;;;4923274;29;20267;-74
2023/01/26 01:06:02;;;;;;;0.00;0.00;;;1.00;99.90;;;;;;4925052;29;20036;-74
2023/01/26 01:08:28;;;;;;;0.00;0.00;;;1.10;99.90;;;;;;4920850;29;20389;-74
2023/01/26 01:11:07;;;;;;;0.00;0.00;;;1.10;99.90;;;;;;4916060;29;20024;-74
2023/01/26 01:13:34;;;;;;;0.00;0.00;;;1.10;99.90;;;;;;4915179;29;20082;-74
2023/01/26 01:16:11;;;;;;;0.00;0.00;;;1.10;99.90;;;;;;4922218;29;20019;-74
2023/01/26 01:18:37;;;;;;;0.00;0.00;;;1.00;99.90;;;;;;4916847;29;20043;-74
2023/01/26 01:21:16;;;;;;;0.00;0.00;;;0.80;99.90;;;;;;4936808;28;20024;-74
2023/01/26 01:23:48;;;;;;;0.00;0.00;;;0.80;99.90;;;;;;4917454;29;20810;-74
2023/01/26 01:26:15;;;;;;;0.00;0.00;;;0.80;99.90;;;;;;4911556;29;20035;-74
2023/01/26 01:28:42;;;;;;;0.00;0.00;;;0.80;99.90;;;;;;4923600;29;20481;-74
2023/01/26 01:31:13;;;;;;;0.00;0.00;;;0.80;99.90;;;;;;4919712;29;20020;-73
2023/01/26 01:33:40;;;;;;;0.00;0.00;;;0.90;99.90;;;;;;4918398;29;20024;-74
2023/01/26 01:36:10;;;;;;;0.00;0.00;;;0.90;99.90;;;;;;4919538;29;20023;-74
2023/01/26 01:38:36;;;;;;;0.00;0.00;;;0.90;99.90;;;;;;4915650;29;20063;-73
2023/01/26 01:41:03;;;;;;;0.00;0.00;;;0.80;99.90;;;;;;4934619;28;20439;-74
2023/01/26 01:43:29;;;;;;;0.00;0.00;;;0.70;99.90;;;;;;4917203;29;20039;-75
2023/01/26 01:45:55;;;;;;;0.00;0.00;;;0.70;99.90;;;;;;4913688;29;20027;-73
2023/01/26 01:48:27;;;;;;;0.00;0.00;;;0.70;99.90;;;;;;4921991;29;20259;-76
2023/01/26 01:51:00;;;;;;;0.15;0.15;;;0.60;99.90;;;;;;4918248;29;20023;-75
2023/01/26 01:53:33;;;;;;;0.00;0.00;;;0.70;99.90;;;;;;4919708;29;20023;-76
2023/01/26 01:56:03;;;;;;;0.00;0.00;;;0.60;99.90;;;;;;4942326;28;20028;-74
2023/01/26 01:58:40;;;;;;;0.00;0.00;;;0.60;99.90;;;;;;4919528;29;20474;-74
2023/01/26 02:01:06;;;;;;;0.00;0.00;;;0.70;99.90;;;;;;4921938;29;20051;-74
2023/01/26 02:03:33;;;;;;;0.00;0.00;;;0.60;99.90;;;;;;4934304;28;20039;-73
2023/01/26 02:06:04;;;;;;;0.00;0.00;;;0.60;99.90;;;;;;4921717;29;20075;-75
2023/01/26 02:08:34;;;;;;;0.00;0.00;;;0.60;99.90;;;;;;4932516;28;20027;-74
2023/01/26 02:11:06;;;;;;;0.00;0.00;;;0.60;99.90;;;;;;4926318;29;20035;-74
2023/01/26 02:13:35;;;;;;;0.00;0.00;;;0.70;99.90;;;;;;4921915;29;20370;-74
2023/01/26 02:16:02;;;;;;;0.00;0.00;;;0.70;99.90;;;;;;4917798;29;20027;-74
2023/01/26 02:18:29;;;;;;;;;;;0.80;99.90;;;;;;4933332;28;20024;-74
2023/01/26 02:20:59;;;;;;;0.00;0.00;;;0.70;99.90;;;;;;4918988;29;20301;-75
2023/01/26 02:23:49;;;;;;;0.00;0.00;;;0.70;99.90;;;;;;4922021;29;20106;-75
2023/01/26 02:26:20;;;;;;;0.00;0.00;;;0.70;99.90;;;;;;4922249;29;20544;-74
2023/01/26 02:28:53;;;;;;;0.00;0.00;;;0.70;99.90;;;;;;4910553;29;20389;-74
2023/01/26 02:31:26;;;;;;;1.20;0.52;;;0.70;99.90;;;;;;4915057;28;20662;-74
2023/01/26 02:33:52;;;;;;;0.32;0.32;;;0.60;99.90;;;;;;4913141;29;20442;-74
2023/01/26 02:36:25;;;;;;;0.30;0.30;;;0.70;99.90;;;;;;4921891;29;20107;-73
2023/01/26 02:39:15;;;;;;;0.00;0.00;;;0.70;99.90;;;;;;4918110;29;20032;-75
2023/01/26 02:44:28;;;;;;;0.00;0.00;;;0.80;99.90;;;;;;4918715;29;20039;-74
2023/01/26 02:46:53;;;;;;;0.00;0.00;;;0.70;99.90;;;;;;4917771;29;20058;-74
2023/01/26 02:52:08;;;;;;;1.45;0.88;;;0.80;99.90;;;;;;4916176;29;20034;-74
2023/01/26 02:57:19;;;;;;;0.00;0.00;;;0.80;99.90;;;;;;4917530;29;20536;-74
2023/01/26 02:59:47;;;;;;;0.00;0.00;;;0.80;99.90;;;;;;4921698;29;20083;-74
2023/01/26 03:02:18;;;;;;;0.00;0.00;;;0.90;99.90;;;;;;4916995;29;20042;-74
2023/01/26 03:04:52;;;;;;;1.30;0.47;;;0.90;99.90;;;;;;4946676;28;20034;-74
2023/01/26 03:07:19;;;;;;;0.00;0.00;;;0.90;99.90;;;;;;4918237;29;20102;-75
2023/01/26 03:09:52;;;;;;;0.00;0.00;;;0.80;99.90;;;;;;4918282;29;20024;-74
2023/01/26 03:12:18;;;;;;;0.00;0.00;;;0.80;99.90;;;;;;4921503;29;20110;-75
2023/01/26 03:15:33;;;;;;;0.75;0.75;;;0.80;99.90;;;;;;4917882;29;21755;-75
2023/01/26 03:17:34;;;;;;;0.00;0.00;;;0.90;99.90;;;;;;4919474;29;20028;-74
2023/01/26 03:28:21;;;;;;;0.20;0.20;;;0.80;99.90;;;;;;4921989;29;20059;-74
2023/01/26 03:30:50;;;;;;;0.00;0.00;;;0.80;99.90;;;;;;4919942;29;20035;-73
2023/01/26 03:33:20;;;;;;;0.00;0.00;;;0.80;99.90;;;;;;4916954;29;20113;-74
2023/01/26 03:35:47;;;;;;;0.00;0.00;;;0.80;99.90;;;;;;4907832;29;20024;-75
2023/01/26 03:38:14;;;;;;;0.22;0.22;;;0.80;99.90;;;;;;4918287;29;20038;-73
2023/01/26 03:57:18;;;;;;;0.00;0.00;;;0.70;99.90;;;;;;4921298;29;20465;-74
2023/01/26 03:59:56;;;;;;;;;;;0.60;99.90;;;;;;4921852;29;20042;-74
2023/01/26 04:08:22;;;;;;;0.00;0.00;;;0.50;99.90;;;;;;4920526;29;20027;-74
2023/01/26 04:10:50;;;;;;;0.00;0.00;;;0.50;99.90;;;;;;4917097;29;20028;-74
2023/01/26 04:21:48;;;;;;;0.00;0.00;;;0.50;99.90;;;;;;4916966;29;20035;-75
2023/01/26 04:24:14;;;;;;;0.00;0.00;;;0.50;99.90;;;;;;4923497;29;20035;-75
2023/01/26 04:26:44;;;;;;;0.53;0.47;;;0.50;99.90;;;;;;4917030;29;20036;-74
2023/01/26 04:29:11;;;;;;;0.00;0.00;;;0.50;99.90;;;;;;4928003;28;20473;-75
2023/01/26 04:31:39;;;;;;;0.00;0.00;;;0.50;99.90;;;;;;4922708;29;20061;-75
2023/01/26 04:34:10;;;;;;;0.00;0.00;;;0.50;99.90;;;;;;4922509;29;20091;-73
2023/01/26 04:36:35;;;;;;;0.00;0.00;;;0.60;99.90;;;;;;4926263;29;20039;-75
2023/01/26 04:39:02;;;;;;;0.00;0.00;;;0.50;99.90;;;;;;4913891;29;20389;-74
2023/01/26 04:41:28;;;;;;;;;;;0.50;99.90;;;;;;4923613;29;20225;-73
2023/01/26 04:43:54;;;;;;;0.00;0.00;;;0.50;99.90;;;;;;4920520;29;19998;-74
2023/01/26 04:46:20;;;;;;;0.00;0.00;;;0.50;99.90;;;;;;4921657;29;20086;-74
2023/01/26 04:48:47;;;;;;;0.00;0.00;;;0.40;99.90;;;;;;4940291;28;20020;-73
2023/01/26 04:51:18;;;;;;;0.08;0.08;;;0.50;99.90;;;;;;4913615;29;20493;-74
2023/01/26 04:53:50;;;;;;;0.00;0.00;;;0.40;99.90;;;;;;4941963;28;20706;-74
2023/01/26 04:56:25;;;;;;;0.00;0.00;;;0.50;99.90;;;;;;4924315;29;20115;-75
2023/01/26 04:58:53;;;;;;;0.00;0.00;;;0.50;99.90;;;;;;4918998;29;20035;-74
2023/01/26 05:01:19;;;;;;;0.00;0.00;;;0.50;99.90;;;;;;4923237;29;20493;-74
2023/01/26 05:03:47;;;;;;;0.00;0.00;;;0.50;99.90;;;;;;4934021;28;20082;-74
2023/01/26 05:06:13;;;;;;;0.00;0.00;;;0.50;99.90;;;;;;4920730;29;20036;-73
2023/01/26 05:08:40;;;;;;;0.00;0.00;;;0.50;99.90;;;;;;4935258;28;20410;-74
2023/01/26 05:11:05;;;;;;;;;;;0.50;99.90;;;;;;4920649;29;20421;-74
2023/01/26 05:13:34;;;;;;;0.00;0.00;;;0.50;99.90;;;;;;4921184;29;19911;-73
2023/01/26 05:16:02;;;;;;;0.00;0.00;;;0.60;99.90;;;;;;4945697;28;20020;-74
2023/01/26 05:18:29;;;;;;;0.00;0.00;;;0.60;99.90;;;;;;4921796;29;20016;-74
2023/01/26 05:20:57;;;;;;;0.00;0.00;;;0.60;99.90;;;;;;4923302;29;20577;-74
2023/01/26 05:23:23;;;;;;;0.00;0.00;;;0.50;99.90;;;;;;4919706;29;20075;-74
2023/01/26 05:25:48;;;;;;;0.00;0.00;;;0.60;99.90;;;;;;4919901;29;20023;-74
2023/01/26 05:28:14;;;;;;;0.00;0.00;;;0.60;99.90;;;;;;4926288;29;20051;-74
2023/01/26 05:30:41;;;;;;;0.00;0.00;;;0.60;99.90;;;;;;4924809;29;20031;-74
2023/01/26 05:33:14;;;;;;;0.00;0.00;;;0.60;99.90;;;;;;4919152;29;20019;-74
2023/01/26 05:35:44;;;;;;;0.00;0.00;;;0.50;99.90;;;;;;4919919;29;20158;-74
2023/01/26 05:38:11;;;;;;;0.00;0.00;;;0.50;99.90;;;;;;4923411;29;20027;-73
2023/01/26 05:40:39;;;;;;;0.00;0.00;;;0.50;99.90;;;;;;4938008;28;20055;-74
2023/01/26 05:43:07;;;;;;;0.10;0.10;;;0.60;99.90;;;;;;4925446;29;20034;-75
2023/01/26 05:45:41;;;;;;;0.00;0.00;;;0.60;99.90;;;;;;4918419;29;20020;-75
2023/01/26 05:48:07;;;;;;;0.00;0.00;;;0.60;99.90;;;;;;4921951;29;20031;-75
2023/01/26 05:50:33;;;;;;;0.00;0.00;;;0.60;99.90;;;;;;4922627;29;20016;-75
2023/01/26 05:53:01;;;;;;;0.10;0.10;;;0.70;99.90;;;;;;4914973;29;20374;-75
2023/01/26 05:55:30;;;;;;;0.08;0.08;;;0.70;99.90;;;;;;4944588;28;20056;-73
2023/01/26 05:57:57;;;;;;;0.00;0.00;;;0.60;99.90;;;;;;4918015;29;20020;-74
2023/01/26 06:00:25;;;;;;;;;;;0.60;99.90;;;;;;4924198;29;20032;-74
2023/01/26 06:02:51;;;;;;;0.00;0.00;;;0.70;99.90;;;;;;4916980;29;19946;-72
2023/01/26 06:05:16;;;;;;;0.00;0.00;;;0.70;99.90;;;;;;4922409;29;20103;-73
2023/01/26 06:07:42;;;;;;;0.00;0.00;;;0.70;99.90;;;;;;4919094;29;20402;-74
2023/01/26 06:10:08;;;;;;;0.00;0.00;;;0.70;99.90;;;;;;4942245;28;20020;-74
2023/01/26 06:12:38;;;;;;;0.00;0.00;;;0.80;99.90;;;;;;4916670;29;20020;-74
2023/01/26 06:15:05;;;;;;;0.00;0.00;;;0.80;99.90;;;;;;4918747;29;20023;-75
2023/01/26 06:17:32;;;;;;;0.00;0.00;;;0.80;99.90;;;;;;4918279;29;20138;-75
2023/01/26 06:19:59;;;;;;;;;;;0.80;99.90;;;;;;4924670;29;20023;-74
2023/01/26 06:22:24;;;;;;;0.00;0.00;;;0.80;99.90;;;;;;4941486;28;19907;-75
2023/01/26 06:24:53;;;;;;;0.00;0.00;;;0.70;99.90;;;;;;4921170;29;20865;-73
2023/01/26 06:27:19;;;;;;;0.00;0.00;;;0.70;99.90;;;;;;4918866;29;20103;-74
2023/01/26 06:29:45;;;;;;;0.00;0.00;;;0.70;99.90;;;;;;4921271;29;21026;-74
2023/01/26 06:32:12;;;;;;;0.00;0.00;;;0.70;99.90;;;;;;4920860;29;20024;-73
2023/01/26 06:34:38;;;;;;;;;;;0.70;99.90;;;;;;4949293;28;20572;-74
2023/01/26 06:37:06;;;;;;;0.00;0.00;;;0.80;99.90;;;;;;4915174;29;19989;-74
2023/01/26 06:39:41;;;;;;;0.00;0.00;;;0.90;99.90;;;;;;4921268;29;20426;-73
2023/01/26 06:42:08;;;;;;;0.00;0.00;;;0.90;99.90;;;;;;4921423;29;20055;-73
2023/01/26 06:44:34;;;;;;;0.00;0.00;;;0.80;99.90;;;;;;4919973;29;20122;-73
2023/01/26 06:47:05;;;;;;;0.00;0.00;;;0.80;99.90;;;;;;4940741;28;20152;-74
2023/01/26 06:49:33;;;;;;;0.00;0.00;;;0.70;99.90;;;;;;4916623;29;20452;-73
2023/01/26 06:52:18;;;;;;;0.00;0.00;;;0.70;99.90;;;;;;4919313;29;20035;-73
2023/01/26 06:54:48;;;;;;;0.00;0.00;;;0.70;99.90;;;;;;4916791;29;20082;-72
2023/01/26 06:57:13;;;;;;;0.00;0.00;;;0.70;99.90;;;;;;4921917;29;20066;-73
2023/01/26 06:59:40;;;;;;;0.00;0.00;;;0.80;99.90;;;;;;4918681;29;20118;-73
2023/01/26 07:02:19;;;;;;;0.00;0.00;;;0.80;99.90;;;;;;4920872;29;20027;-74
2023/01/26 07:04:48;;;;;;;0.00;0.00;;;0.80;99.90;;;;;;4917763;29;20043;-74
2023/01/26 07:07:14;;;;;;;0.00;0.00;;;0.80;99.90;;;;;;4918826;29;20087;-73
2023/01/26 07:09:40;;;;;;;0.00;0.00;;;0.80;99.90;;;;;;4916710;29;20397;-74
2023/01/26 07:12:08;;;;;;;0.00;0.00;;;0.80;99.90;;;;;;4921032;29;20019;-73
2023/01/26 07:14:34;;;;;;;0.20;0.20;;;0.80;99.90;;;;;;4913320;29;20028;-73
2023/01/26 07:17:01;;;;;;;;;;;0.80;99.90;;;;;;4925857;29;20039;-73
2023/01/26 07:19:31;;;;;;;0.00;0.00;;;0.80;99.90;;;;;;4916986;29;20393;-73
2023/01/26 07:21:57;;;;;;;0.00;0.00;;;0.80;99.90;;;;;;4933304;28;20028;-73
2023/01/26 07:24:23;;;;;;;0.00;0.00;;;0.80;99.90;;;;;;4916526;29;20035;-70
2023/01/26 07:26:50;;;;;;;0.32;0.32;;;0.90;99.90;;;;;;4919290;29;20772;-71
2023/01/26 07:29:16;;;;;;;0.00;0.00;;;1.40;99.90;;;;;;4919385;29;20047;-70
2023/01/26 07:31:43;;;;;;;0.00;0.00;;;1.10;99.90;;;;;;4922619;29;20028;-70
2023/01/26 07:34:10;;;;;;;0.00;0.00;;;1.00;99.90;;;;;;4920398;29;20420;-72
2023/01/26 07:36:37;;;;;;;0.00;0.00;;;0.90;99.90;;;;;;4921010;29;20108;-71
2023/01/26 07:39:05;;;;;;;0.00;0.00;;;0.80;99.90;;;;;;4921223;29;20043;-70
2023/01/26 07:41:32;;;;;;;0.00;0.00;;;0.80;99.90;;;;;;4923607;29;20016;-70
2023/01/26 07:43:59;;;;;;;0.00;0.00;;;0.80;99.90;;;;;;4919935;29;20377;-70
2023/01/26 07:46:27;;;;;;;0.00;0.00;;;0.80;99.90;;;;;;4921495;29;20534;-72
2023/01/26 07:48:55;;;;;;;0.00;0.00;;;0.80;99.90;;;;;;4922960;29;20016;-73
2023/01/26 07:51:22;;;;;;;0.00;0.00;;;0.80;99.90;;;;;;4925118;29;20114;-72
2023/01/26 07:53:48;;;;;;;0.00;0.00;;;0.90;99.90;;;;;;4922549;29;20030;-72
2023/01/26 07:56:19;;;;;;;0.43;0.43;;;0.90;99.90;;;;;;4941129;28;20032;-73
2023/01/26 07:58:49;;;;;;;0.00;0.00;;;0.90;99.90;;;;;;4920504;29;20059;-73
2023/01/26 08:01:16;;;;;;;0.00;0.00;;;0.90;99.90;;;;;;4920658;29;20072;-73
2023/01/26 08:03:44;;;;;;;0.00;0.00;;;0.90;99.90;;;;;;4924449;29;20103;-72
2023/01/26 08:06:12;;;;;;;0.00;0.00;;;0.90;99.90;;;;;;4930325;29;20376;-72
2023/01/26 08:08:39;;;;;;;0.00;0.00;;;0.90;99.90;;;;;;4917073;29;20595;-72
2023/01/26 08:11:08;;;;;;;0.00;0.00;;;0.90;99.90;;;;;;4917664;29;20595;-72
2023/01/26 08:13:35;;;;;;;0.00;0.00;;;0.90;99.90;;;;;;4918910;29;20048;-72
2023/01/26 08:16:05;;;;;;;0.00;0.00;;;0.90;99.90;;;;;;4921720;29;20102;-72
2023/01/26 08:18:32;;;;;;;0.00;0.00;;;0.90;99.90;;;;;;4919900;29;20106;-73
2023/01/26 08:20:59;;;;;;;;;;;0.90;99.90;;;;;;4920685;29;20079;-73
2023/01/26 08:23:28;;;;;;;0.00;0.00;;;0.90;99.90;;;;;;4937728;28;19997;-73
2023/01/26 08:25:54;;;;;;;0.00;0.00;;;0.90;99.90;;;;;;4920124;29;20021;-72
2023/01/26 08:28:19;;;;;;;0.00;0.00;;;0.90;99.90;;;;;;4924716;29;20850;-73
2023/01/26 08:30:47;;;;;;;0.00;0.00;;;1.00;99.90;;;;;;4910975;29;20024;-73
2023/01/26 08:33:14;;;;;;;0.00;0.00;;;1.00;99.90;;;;;;4923384;29;20216;-73
2023/01/26 08:35:40;;;;;;;;;;;1.00;99.90;;;;;;4915256;29;20087;-73
2023/01/26 08:38:09;;;;;;;0.00;0.00;;;0.90;99.90;;;;;;4936358;28;20009;-73
2023/01/26 08:40:35;;;;;;;0.00;0.00;;;0.90;99.90;;;;;;4917387;29;20023;-73
2023/01/26 08:43:06;;;;;;;0.00;0.00;;;0.90;99.90;;;;;;4921632;29;20462;-73
2023/01/26 08:45:32;;;;;;;3.85;0.85;;;1.00;99.90;;;;;;4919155;29;20031;-73
2023/01/26 08:47:59;;;;;;;0.00;0.00;;;0.90;99.90;;;;;;4925485;29;20023;-73
2023/01/26 08:50:25;;;;;;;;;;;0.90;99.90;;;;;;4921772;29;20031;-72
2023/01/26 08:52:50;;;;;;;0.00;0.00;;;1.00;99.90;;;;;;4937668;28;19917;-73
2023/01/26 08:55:16;;;;;;;0.00;0.00;;;1.00;99.90;;;;;;4931388;29;20034;-73
2023/01/26 08:57:45;;;;;;;0.00;0.00;;;1.00;99.90;;;;;;4917201;29;20047;-73
2023/01/26 09:00:12;;;;;;;0.00;0.00;;;1.10;99.90;;;;;;4919338;29;20038;-73
2023/01/26 09:02:41;;;;;;;0.00;0.00;;;1.20;99.90;;;;;;4922643;29;20027;-73
2023/01/26 09:05:07;;;;;;;0.00;0.00;;;1.20;99.90;;;;;;4921208;29;20039;-73
2023/01/26 09:07:33;;;;;;;0.00;0.00;;;1.20;99.90;;;;;;4923079;29;20033;-73
2023/01/26 09:09:59;;;;;;;0.03;0.03;;;1.10;99.90;;;;;;4918419;29;20386;-71
2023/01/26 09:12:26;;;;;;;1.60;0.50;;;1.10;99.90;;;;;;4922117;29;20023;-71
2023/01/26 09:14:55;;;;;;;0.00;0.00;;;1.10;99.90;;;;;;4941901;28;20020;-71
2023/01/26 09:17:21;;;;;;;0.00;0.00;;;1.10;99.90;;;;;;4922517;29;20071;-71
2023/01/26 09:19:48;;;;;;;0.00;0.00;;;1.00;99.90;;;;;;4926513;29;20028;-71
2023/01/26 09:22:18;;;;;;;0.00;0.00;;;1.00;99.90;;;;;;4922776;29;20375;-71
2023/01/26 09:24:45;;;;;;;0.00;0.00;;;1.10;99.90;;;;;;4933059;28;20759;-75
2023/01/26 09:27:12;;;;;;;0.00;0.00;;;1.30;99.90;;;;;;4922386;29;20443;-73
2023/01/26 09:29:39;;;;;;;0.70;0.70;;;1.40;99.90;;;;;;4918342;29;20036;-73
2023/01/26 09:32:05;;;;;;;0.00;0.00;;;1.50;99.90;;;;;;4922019;29;20024;-74
2023/01/26 09:34:30;;;;;;;0.00;0.00;;;1.50;99.90;;;;;;4919887;29;20300;-73
2023/01/26 09:36:57;;;;;;;0.00;0.00;;;1.40;99.90;;;;;;4922909;29;20091;-74
2023/01/26 09:39:23;;;;;;;0.00;0.00;;;1.40;99.90;;;;;;4919262;29;20098;-71
2023/01/26 09:42:09;;;;;;;0.15;0.15;;;1.20;99.90;;;;;;4916985;29;20102;-73
2023/01/26 09:44:47;;;;;;;0.00;0.00;;;1.30;99.90;;;;;;4917621;29;20074;-73
2023/01/26 09:47:16;;;;;;;0.65;0.65;;;1.30;99.90;;;;;;4915000;29;20134;-72
2023/01/26 09:49:51;;;;;;;0.00;0.00;;;1.30;99.90;;;;;;4924958;29;20019;-74
2023/01/26 09:52:26;;;;;;;0.10;0.10;;;1.20;99.90;;;;;;4912488;29;20027;-73
2023/01/26 09:54:56;;;;;;;0.00;0.00;;;1.30;99.90;;;;;;4921630;29;20023;-73
2023/01/26 09:57:34;;;;;;;0.00;0.00;;;1.30;99.90;;;;;;4917024;29;20027;-73
2023/01/26 10:00:07;;;;;;;0.00;0.00;;;1.40;99.90;;;;;;4920401;29;20020;-73
2023/01/26 10:03:04;;;;;;;0.00;0.00;;;1.30;99.90;;;;;;4922650;28;20031;-73
2023/01/26 10:05:32;;;;;;;0.00;0.00;;;1.40;99.90;;;;;;4922866;29;20027;-72
2023/01/26 10:07:58;;;;;;;0.00;0.00;;;1.30;99.90;;;;;;4922791;28;20087;-72
2023/01/26 10:10:33;;;;;;;0.00;0.00;;;1.30;99.90;;;;;;4926492;29;20031;-73
2023/01/26 10:13:01;;;;;;;0.00;0.00;;;1.20;99.90;;;;;;4919131;29;20027;-72
2023/01/26 10:15:27;;;;;;;0.00;0.00;;;1.30;99.90;;;;;;4923443;29;20119;-73
2023/01/26 10:17:54;;;;;;;0.00;0.00;;;1.40;99.90;;;;;;4923168;29;20552;-73
2023/01/26 10:20:49;;;;;;;0.00;0.00;;;1.40;99.90;;;;;;4922696;29;20024;-73
2023/01/26 10:23:28;;;;;;;0.17;0.17;;;1.40;99.90;;;;;;4920914;28;20066;-73
2023/01/26 10:26:06;;;;;;;0.00;0.00;;;1.40;99.90;;;;;;4915623;29;20054;-73
2023/01/26 10:28:34;;;;;;;0.00;0.00;;;1.40;99.90;;;;;;4917070;29;20217;-72
2023/01/26 10:31:17;;;;;;;0.00;0.00;;;1.50;99.90;;;;;;4923038;29;20035;-73
2023/01/26 10:34:07;;;;;;;0.00;0.00;;;1.50;99.90;;;;;;4917741;29;20115;-73
2023/01/26 10:36:39;;;;;;;0.50;0.50;;;1.50;99.90;;;;;;4914156;29;20066;-73
2023/01/26 10:39:09;;;;;;;0.00;0.00;;;1.60;99.90;;;;;;4920212;29;20063;-75
2023/01/26 10:41:38;;;;;;;0.00;0.00;;;1.60;99.90;;;;;;4914331;29;20119;-73
2023/01/26 10:44:28;;;;;;;0.00;0.00;;;1.70;99.90;;;;;;4920638;29;20063;-73
2023/01/26 10:47:15;;;;;;;0.00;0.00;;;1.80;99.90;;;;;;4918055;29;20079;-73
2023/01/26 10:49:41;;;;;;;0.00;0.00;;;1.90;99.90;;;;;;4942369;28;20110;-74
2023/01/26 10:52:21;;;;;;;0.00;0.00;;;1.90;99.90;;;;;;4925562;28;20043;-74
2023/01/26 10:54:50;;;;;;;0.00;0.00;;;2.00;99.90;;;;;;4921497;29;20027;-74
2023/01/26 10:57:23;;;;;;;1.55;0.90;;;1.90;99.90;;;;;;4921911;29;20513;-73
2023/01/26 10:59:55;;;;;;;0.00;0.00;;;2.00;99.90;;;;;;4914718;29;20023;-74
2023/01/26 11:02:26;;;;;;;0.00;0.00;;;2.00;99.90;;;;;;4919882;29;20027;-73
2023/01/26 11:05:07;;;;;;;0.00;0.00;;;1.90;99.90;;;;;;4907259;29;20028;-73
2023/01/26 11:07:42;;;;;;;0.00;0.00;;;1.80;99.90;;;;;;4922551;28;20031;-74
2023/01/26 11:10:24;;;;;;;0.00;0.00;;;1.70;99.90;;;;;;4917148;28;20043;-73
2023/01/26 11:13:04;;;;;;;0.00;0.00;;;1.60;99.90;;;;;;4917974;29;20019;-74
2023/01/26 11:15:36;;;;;;;0.00;0.00;;;1.60;99.90;;;;;;4916244;29;20377;-72
2023/01/26 11:18:28;;;;;;;0.00;0.00;;;1.70;99.90;;;;;;4920821;29;20086;-73
2023/01/26 11:21:04;;;;;;;0.00;0.00;;;1.80;99.90;;;;;;4909073;29;20035;-74
2023/01/26 11:23:52;;;;;;;0.00;0.00;;;1.90;99.90;;;;;;4916578;29;20430;-74
2023/01/26 11:26:40;;;;;;;0.00;0.00;;;2.00;99.90;;;;;;4919754;29;20054;-74
2023/01/26 11:29:09;;;;;;;0.00;0.00;;;2.10;99.90;;;;;;4920809;29;20027;-74
2023/01/26 11:31:56;;;;;;;0.00;0.00;;;2.20;99.90;;;;;;4908995;29;20624;-74
2023/01/26 11:34:28;;;;;;;;;;;2.40;99.90;;;;;;4921565;29;20815;-74
2023/01/26 11:37:08;;;;;;;0.00;0.00;;;2.50;99.90;;;;;;4923186;29;20013;-73
2023/01/26 11:39:37;;;;;;;0.00;0.00;;;2.50;99.90;;;;;;4921032;29;20023;-73
2023/01/26 11:42:25;;;;;;;0.00;0.00;;;2.50;99.90;;;;;;4916773;29;20106;-74
2023/01/26 11:44:57;;;;;;;;;;;2.40;99.90;;;;;;4917503;29;20740;-73
2023/01/26 11:47:43;;;;;;;0.00;0.00;;;2.40;99.90;;;;;;4915215;29;19926;-73
2023/01/26 11:50:29;;;;;;;0.00;0.00;;;2.40;99.90;;;;;;4908478;29;20038;-74
2023/01/26 11:53:22;;;;;;;0.00;0.00;;;2.40;99.90;;;;;;4920609;29;20054;-74
2023/01/26 11:55:52;;;;;;;0.00;0.00;;;2.40;99.90;;;;;;4922703;29;20067;-73
2023/01/26 11:58:41;;;;;;;0.00;0.00;;;2.40;99.90;;;;;;4918674;29;20028;-74
2023/01/26 12:01:34;;;;;;;0.00;0.00;;;2.50;99.90;;;;;;4920960;29;20086;-73
2023/01/26 12:04:20;;;;;;;0.00;0.00;;;2.50;99.90;;;;;;4915769;29;20452;-74
2023/01/26 12:07:19;;;;;;;0.00;0.00;;;2.40;99.90;;;;;;4915810;29;20031;-74
2023/01/26 12:09:51;;;;;;;0.00;0.00;;;2.50;99.90;;;;;;4918785;29;20034;-74
2023/01/26 12:12:29;;;;;;;0.47;0.32;;;2.50;99.90;;;;;;4923898;29;20020;-74
2023/01/26 12:15:08;;;;;;;0.00;0.00;;;2.50;99.90;;;;;;4918625;29;20055;-74
2023/01/26 12:17:49;;;;;;;0.00;0.00;;;2.50;99.90;;;;;;4933028;28;20063;-73
2023/01/26 12:20:49;;;;;;;0.00;0.00;;;2.50;99.90;;;;;;4918502;29;20036;-74
2023/01/26 12:23:50;;;;;;;0.00;0.00;;;2.50;99.90;;;;;;4920591;29;20043;-74
2023/01/26 12:26:20;;;;;;;0.00;0.00;;;2.50;99.90;;;;;;4909963;29;20032;-75
2023/01/26 12:28:48;;;;;;;0.00;0.00;;;2.60;99.90;;;;;;4921251;29;20035;-76
2023/01/26 12:31:33;;;;;;;0.00;0.00;;;2.60;99.90;;;;;;4924126;29;20035;-74
2023/01/26 12:34:01;;;;;;;0.00;0.00;;;2.60;99.90;;;;;;4924164;29;20417;-77
2023/01/26 12:36:57;;;;;;;0.00;0.00;;;2.60;99.90;;;;;;4917957;29;20075;-75
2023/01/26 12:39:47;;;;;;;0.10;0.10;;;2.50;99.90;;;;;;4884808;29;20038;-75
2023/01/26 12:42:45;;;;;;;0.10;0.10;;;2.50;99.90;;;;;;4921788;29;21577;-77
2023/01/26 12:45:20;;;;;;;0.00;0.00;;;2.60;99.90;;;;;;4919145;29;20083;-75
2023/01/26 12:47:52;;;;;;;0.00;0.00;;;2.60;99.90;;;;;;4926489;29;20046;-75
2023/01/26 12:50:29;;;;;;;0.00;0.00;;;2.60;99.90;;;;;;4925521;29;20094;-75
2023/01/26 12:52:55;;;;;;;0.00;0.00;;;2.60;99.90;;;;;;4930686;28;20048;-73
2023/01/26 12:55:31;;;;;;;0.00;0.00;;;2.60;99.90;;;;;;4929832;28;20512;-74
2023/01/26 12:58:09;;;;;;;0.00;0.00;;;2.60;99.90;;;;;;4911766;29;20024;-74
2023/01/26 13:00:37;;;;;;;0.00;0.00;;;2.60;99.90;;;;;;4922978;29;20027;-74
2023/01/26 13:03:20;;;;;;;0.00;0.00;;;2.60;99.90;;;;;;4942314;28;20218;-74
2023/01/26 13:06:19;;;;;;;0.08;0.08;;;2.60;99.90;;;;;;4919967;29;20549;-73
2023/01/26 13:08:59;;;;;;;0.00;0.00;;;2.60;99.90;;;;;;4921304;29;20125;-75
2023/01/26 13:11:48;;;;;;;0.00;0.00;;;2.60;99.90;;;;;;4925478;28;20042;-74
2023/01/26 13:14:36;;;;;;;0.00;0.00;;;2.60;99.90;;;;;;4939026;28;20027;-74
2023/01/26 13:17:16;;;;;;;0.43;0.43;;;2.60;99.90;;;;;;4924605;29;20019;-76
2023/01/26 13:19:43;;;;;;;0.75;0.75;;;2.50;99.90;;;;;;4925426;29;20102;-74
2023/01/26 13:22:40;;;;;;;0.00;0.00;;;2.60;99.90;;;;;;4923001;29;20031;-74
2023/01/26 13:25:27;;;;;;;0.00;0.00;;;2.70;99.90;;;;;;4917864;29;20023;-73
2023/01/26 13:28:01;;;;;;;0.00;0.00;;;2.60;99.90;;;;;;4916094;29;20039;-74
2023/01/26 13:30:31;;;;;;;0.00;0.00;;;2.60;99.90;;;;;;4922257;29;20035;-74
2023/01/26 13:33:18;;;;;;;0.00;0.00;;;2.60;99.90;;;;;;4917014;29;20026;-73
2023/01/26 13:35:45;;;;;;;0.10;0.10;;;2.60;99.90;;;;;;4919978;29;20188;-73
2023/01/26 13:38:14;;;;;;;0.00;0.00;;;2.60;99.90;;;;;;4920335;29;20027;-74
2023/01/26 13:40:49;;;;;;;0.00;0.00;;;2.60;99.90;;;;;;4918419;29;20028;-74
2023/01/26 13:43:39;;;;;;;0.00;0.00;;;2.60;99.90;;;;;;4919847;29;20027;-74
2023/01/26 13:46:29;;;;;;;0.00;0.00;;;2.60;99.90;;;;;;4923008;29;20678;-75
2023/01/26 13:48:56;;;;;;;0.00;0.00;;;2.50;99.90;;;;;;4920289;29;20036;-74
2023/01/26 13:51:30;;;;;;;0.00;0.00;;;2.40;99.90;;;;;;4923054;29;20034;-75
2023/01/26 13:54:03;;;;;;;0.13;0.13;;;2.40;99.90;;;;;;4908129;29;20036;-74
2023/01/26 13:56:35;;;;;;;0.00;0.00;;;2.40;99.90;;;;;;4922661;29;20749;-75
2023/01/26 13:59:14;;;;;;;0.00;0.00;;;2.40;99.90;;;;;;4917425;29;20048;-74
2023/01/26 14:01:46;;;;;;;0.00;0.00;;;2.50;99.90;;;;;;4916580;29;20055;-74
2023/01/26 14:04:26;;;;;;;0.00;0.00;;;2.50;99.90;;;;;;4924011;29;20103;-73
2023/01/26 14:06:58;;;;;;;0.00;0.00;;;2.40;99.90;;;;;;4917932;29;20047;-76
2023/01/26 14:09:33;;;;;;;0.00;0.00;;;2.50;99.90;;;;;;4917390;29;20043;-74
2023/01/26 14:12:03;;;;;;;0.10;0.10;;;2.40;99.90;;;;;;4919763;29;20020;-73
2023/01/26 14:14:36;;;;;;;0.00;0.00;;;2.40;99.90;;;;;;4913116;29;20026;-74